createdAt,value
2019-03-21T00:01:04.877Z,95.80
2019-03-21T00:03:32.117Z,96.20
2019-03-21T00:05:59.457Z,97.10
2019-03-21T00:08:26.880Z,97.50
2019-03-21T00:11:41.768Z,98.00
2019-03-21T00:14:20.674Z,98.60
2019-03-21T00:16:47.944Z,99.30
2019-03-21T00:19:15.081Z,99.90
2019-03-21T00:21:42.227Z,99.90
2019-03-21T00:24:09.398Z,99.90
2019-03-21T00:26:36.540Z,99.90
2019-03-21T00:29:03.748Z,99.90
2019-03-21T00:31:31.145Z,99.90
2019-03-21T00:33:59.591Z,99.90
2019-03-21T00:36:26.838Z,99.90
2019-03-21T00:38:54.180Z,99.90
2019-03-21T00:41:21.287Z,99.90
2019-03-21T00:43:48.461Z,99.90
2019-03-21T00:46:15.968Z,99.90
2019-03-21T00:48:43.257Z,99.80
2019-03-21T00:51:12.587Z,99.70
2019-03-21T00:53:39.845Z,99.70
2019-03-21T00:56:07.132Z,99.70
2019-03-21T00:58:34.381Z,99.90
2019-03-21T01:01:01.634Z,99.90
2019-03-21T01:03:29.530Z,99.90
2019-03-21T01:05:57.129Z,99.90
2019-03-21T01:08:24.359Z,99.90
2019-03-21T01:10:51.692Z,99.90
2019-03-21T01:13:19.592Z,99.90
2019-03-21T01:15:47.154Z,99.90
2019-03-21T01:18:14.453Z,99.90
2019-03-21T01:20:42.745Z,99.90
2019-03-21T01:23:09.864Z,99.90
2019-03-21T01:25:48.340Z,99.90
2019-03-21T01:28:15.473Z,99.90
2019-03-21T01:30:42.636Z,99.90
2019-03-21T01:33:09.831Z,99.90
2019-03-21T01:35:38.114Z,99.90
2019-03-21T01:38:05.470Z,99.90
2019-03-21T01:40:37.292Z,99.90
2019-03-21T01:43:04.491Z,99.90
2019-03-21T01:45:34.653Z,99.90
2019-03-21T01:48:02.410Z,99.90
2019-03-21T01:50:30.488Z,99.90
2019-03-21T01:52:57.913Z,99.90
2019-03-21T01:55:25.149Z,99.90
2019-03-21T01:57:52.279Z,99.90
2019-03-21T02:00:22.551Z,99.90
2019-03-21T02:02:51.377Z,99.90
2019-03-21T02:05:18.537Z,99.90
2019-03-21T02:07:45.785Z,99.90
2019-03-21T02:10:16.143Z,99.90
2019-03-21T02:12:43.364Z,99.90
2019-03-21T02:15:11.399Z,99.90
2019-03-21T02:17:38.532Z,99.90
2019-03-21T02:20:06.646Z,99.90
2019-03-21T02:22:34.263Z,99.90
2019-03-21T02:25:02.896Z,99.90
2019-03-21T02:27:30.147Z,99.90
2019-03-21T02:29:57.313Z,99.90
2019-03-21T02:32:24.490Z,99.90
2019-03-21T02:34:51.908Z,99.90
2019-03-21T02:37:19.139Z,99.90
2019-03-21T02:39:58.630Z,99.90
2019-03-21T02:42:15.486Z,99.90
2019-03-21T02:44:42.725Z,99.90
2019-03-21T02:47:10.169Z,99.90
2019-03-21T02:49:37.428Z,99.90
2019-03-21T02:52:05.332Z,99.90
2019-03-21T02:54:32.815Z,99.90
2019-03-21T02:57:00.051Z,99.90
2019-03-21T02:59:27.264Z,99.90
2019-03-21T03:01:54.471Z,99.90
2019-03-21T03:04:21.811Z,99.90
2019-03-21T03:06:48.939Z,99.90
2019-03-21T03:09:16.103Z,99.90
2019-03-21T03:11:43.241Z,99.90
2019-03-21T03:14:10.515Z,99.90
2019-03-21T03:16:37.781Z,99.90
2019-03-21T03:19:04.948Z,99.90
2019-03-21T03:21:32.256Z,99.90
2019-03-21T03:23:59.585Z,99.90
2019-03-21T03:26:26.791Z,99.90
2019-03-21T03:28:53.984Z,99.90
2019-03-21T03:31:21.190Z,99.90
2019-03-21T03:33:48.457Z,99.90
2019-03-21T03:36:15.696Z,99.90
2019-03-21T03:38:42.886Z,99.90
2019-03-21T03:41:10.116Z,99.90
2019-03-21T03:43:37.240Z,99.90
2019-03-21T03:46:04.609Z,99.90
2019-03-21T03:48:31.831Z,99.90
2019-03-21T03:50:59.001Z,99.90
2019-03-21T03:53:26.187Z,99.90
2019-03-21T03:55:53.414Z,99.90
2019-03-21T03:58:21.544Z,99.90
2019-03-21T04:00:48.909Z,99.90
2019-03-21T04:03:16.056Z,99.90
2019-03-21T04:05:43.223Z,99.90
2019-03-21T04:08:10.411Z,99.90
2019-03-21T04:10:39.936Z,99.90
2019-03-21T04:13:07.119Z,99.90
2019-03-21T04:15:34.374Z,99.90
2019-03-21T04:18:01.620Z,99.90
2019-03-21T04:20:30.210Z,99.90
2019-03-21T04:22:57.445Z,99.90
2019-03-21T04:25:28.204Z,99.90
2019-03-21T04:27:55.319Z,99.90
2019-03-21T04:30:22.475Z,99.90
2019-03-21T04:32:49.665Z,99.90
2019-03-21T04:35:16.799Z,99.90
2019-03-21T04:37:44.017Z,99.90
2019-03-21T04:40:11.653Z,99.90
2019-03-21T04:42:39.138Z,99.90
2019-03-21T04:45:09.267Z,99.90
2019-03-21T04:47:36.424Z,99.90
2019-03-21T04:50:04.321Z,99.90
2019-03-21T04:52:31.637Z,99.90
2019-03-21T04:54:59.444Z,99.90
2019-03-21T04:57:27.326Z,99.90
2019-03-21T04:59:54.599Z,99.90
2019-03-21T05:02:21.735Z,99.90
2019-03-21T05:04:48.905Z,99.90
2019-03-21T05:07:16.152Z,99.90
2019-03-21T05:09:43.674Z,99.90
2019-03-21T05:12:11.673Z,99.90
2019-03-21T05:14:38.911Z,99.90
2019-03-21T05:17:06.063Z,99.90
2019-03-21T05:19:33.229Z,99.90
2019-03-21T05:22:00.887Z,99.90
2019-03-21T05:24:28.144Z,99.90
2019-03-21T05:26:55.326Z,99.90
2019-03-21T05:29:22.524Z,99.90
2019-03-21T05:31:49.667Z,99.90
2019-03-21T05:34:16.932Z,99.90
2019-03-21T05:36:44.508Z,99.90
2019-03-21T05:39:12.012Z,99.90
2019-03-21T05:41:39.320Z,99.90
2019-03-21T05:44:12.872Z,99.90
2019-03-21T05:46:40.061Z,99.90
2019-03-21T05:49:07.240Z,99.90
2019-03-21T05:51:34.719Z,99.90
2019-03-21T05:54:02.050Z,99.90
2019-03-21T05:56:29.882Z,99.90
2019-03-21T05:58:57.596Z,99.90
2019-03-21T06:01:24.842Z,99.90
2019-03-21T06:03:52.269Z,99.90
2019-03-21T06:06:26.740Z,99.30
2019-03-21T06:08:53.955Z,99.00
2019-03-21T06:11:22.973Z,99.00
2019-03-21T06:13:50.107Z,99.00
2019-03-21T06:16:17.965Z,98.90
2019-03-21T06:19:24.529Z,98.80
2019-03-21T06:22:28.730Z,98.50
2019-03-21T06:25:19.894Z,98.10
2019-03-21T06:27:47.065Z,97.60
2019-03-21T06:30:14.195Z,97.40
2019-03-21T06:32:41.378Z,97.20
2019-03-21T06:35:19.519Z,97.20
2019-03-21T06:37:46.793Z,97.00
2019-03-21T06:40:14.004Z,96.70
2019-03-21T06:42:41.144Z,96.60
2019-03-21T06:45:08.656Z,96.50
2019-03-21T06:47:36.273Z,96.90
2019-03-21T06:50:04.377Z,96.70
2019-03-21T06:52:31.592Z,96.80
2019-03-21T06:54:59.823Z,96.90
2019-03-21T06:57:27.301Z,96.30
2019-03-21T06:59:54.693Z,96.30
2019-03-21T07:02:21.811Z,96.40
2019-03-21T07:04:48.977Z,96.50
2019-03-21T07:07:16.235Z,96.20
2019-03-21T07:09:43.376Z,95.70
2019-03-21T07:12:10.544Z,95.40
2019-03-21T07:14:37.721Z,95.60
2019-03-21T07:17:04.895Z,94.70
2019-03-21T07:19:32.056Z,94.60
2019-03-21T07:21:59.207Z,94.10
2019-03-21T07:24:26.315Z,93.70
2019-03-21T07:26:53.487Z,93.30
2019-03-21T07:29:20.659Z,93.10
2019-03-21T07:31:47.788Z,93.40
2019-03-21T07:34:14.928Z,93.40
2019-03-21T07:36:42.105Z,93.00
2019-03-21T07:39:09.665Z,92.80
2019-03-21T07:41:36.828Z,92.30
2019-03-21T07:44:04.166Z,92.20
2019-03-21T07:46:32.116Z,92.10
2019-03-21T07:48:59.527Z,92.40
2019-03-21T07:51:26.702Z,92.60
2019-03-21T07:53:54.408Z,92.70
2019-03-21T07:56:21.567Z,93.20
2019-03-21T07:58:48.767Z,93.70
2019-03-21T08:01:15.931Z,93.80
2019-03-21T08:03:43.048Z,94.10
2019-03-21T08:06:10.220Z,94.40
2019-03-21T08:08:37.348Z,94.10
2019-03-21T08:11:04.523Z,93.50
2019-03-21T08:13:31.729Z,93.50
2019-03-21T08:15:58.980Z,93.30
2019-03-21T08:18:26.140Z,93.50
2019-03-21T08:20:58.413Z,93.90
2019-03-21T08:23:22.341Z,93.60
2019-03-21T08:25:49.470Z,94.40
2019-03-21T08:28:17.653Z,94.70
2019-03-21T08:31:14.796Z,95.00
2019-03-21T08:33:42.142Z,94.40
2019-03-21T08:36:09.585Z,94.50
2019-03-21T08:38:36.728Z,94.80
2019-03-21T08:41:04.014Z,94.20
2019-03-21T08:43:31.176Z,93.90
2019-03-21T08:45:58.432Z,93.40
2019-03-21T08:48:25.953Z,92.80
2019-03-21T08:50:53.212Z,92.50
2019-03-21T08:53:20.586Z,92.30
2019-03-21T08:55:48.035Z,92.60
2019-03-21T08:58:15.321Z,92.70
2019-03-21T09:00:42.447Z,91.50
2019-03-21T09:03:09.889Z,91.10
2019-03-21T09:05:37.562Z,89.50
2019-03-21T09:08:05.572Z,88.30
2019-03-21T09:10:34.432Z,88.50
2019-03-21T09:13:02.703Z,87.80
2019-03-21T09:15:30.743Z,86.80
2019-03-21T09:17:59.839Z,84.50
2019-03-21T09:20:27.280Z,84.40
2019-03-21T09:22:55.282Z,82.50
2019-03-21T09:25:23.744Z,80.20
2019-03-21T09:28:02.126Z,77.10
2019-03-21T09:30:21.294Z,75.80
2019-03-21T09:32:49.074Z,75.00
2019-03-21T09:35:16.848Z,75.10
2019-03-21T09:37:45.128Z,76.30
2019-03-21T09:40:13.228Z,75.60
2019-03-21T09:42:41.674Z,75.80
2019-03-21T09:45:10.865Z,79.00
2019-03-21T09:47:39.153Z,81.40
2019-03-21T09:50:07.100Z,83.00
2019-03-21T09:52:34.775Z,83.80
2019-03-21T09:55:03.344Z,83.90
2019-03-21T09:57:31.429Z,85.00
2019-03-21T09:59:59.268Z,85.00
2019-03-21T10:02:26.711Z,85.40
2019-03-21T10:04:54.654Z,85.30
2019-03-21T10:07:22.182Z,85.40
2019-03-21T10:09:49.843Z,86.00
2019-03-21T10:12:17.246Z,86.90
2019-03-21T10:14:45.328Z,87.30
2019-03-21T10:17:13.143Z,86.50
2019-03-21T10:19:40.373Z,85.60
2019-03-21T10:22:07.776Z,85.20
2019-03-21T10:24:36.558Z,84.90
2019-03-21T10:27:04.286Z,85.50
2019-03-21T10:29:32.032Z,85.50
2019-03-21T10:31:59.470Z,85.60
2019-03-21T10:34:26.759Z,85.30
2019-03-21T10:36:54.462Z,85.00
2019-03-21T10:39:22.859Z,85.00
2019-03-21T10:41:51.267Z,85.10
2019-03-21T10:44:20.599Z,84.90
2019-03-21T10:46:48.965Z,84.70
2019-03-21T10:49:16.259Z,84.70
2019-03-21T10:51:54.391Z,84.10
2019-03-21T10:54:14.564Z,84.60
2019-03-21T10:56:42.035Z,84.00
2019-03-21T10:59:13.748Z,85.00
2019-03-21T11:01:41.986Z,84.80
2019-03-21T11:04:09.499Z,85.00
2019-03-21T11:06:37.852Z,85.00
2019-03-21T11:09:08.199Z,84.80
2019-03-21T11:11:37.732Z,84.50
2019-03-21T11:14:05.450Z,83.90
2019-03-21T11:16:33.820Z,83.50
2019-03-21T11:19:01.392Z,82.90
2019-03-21T11:21:29.768Z,82.00
2019-03-21T11:23:57.554Z,82.30
2019-03-21T11:26:25.196Z,82.60
2019-03-21T11:28:52.628Z,82.10
2019-03-21T11:31:20.099Z,82.70
2019-03-21T11:33:48.591Z,82.30
2019-03-21T11:36:16.181Z,82.40
2019-03-21T11:38:44.867Z,81.60
2019-03-21T11:41:13.131Z,81.30
2019-03-21T11:43:41.229Z,81.50
2019-03-21T11:46:10.348Z,82.00
2019-03-21T11:48:37.952Z,82.00
2019-03-21T11:51:05.811Z,81.70
2019-03-21T11:53:34.809Z,81.10
2019-03-21T11:56:01.950Z,79.90
2019-03-21T11:58:29.080Z,79.50
2019-03-21T12:00:56.499Z,79.90
2019-03-21T12:03:24.451Z,79.20
2019-03-21T12:05:51.849Z,77.90
2019-03-21T12:08:20.028Z,79.20
2019-03-21T12:10:47.305Z,79.40
2019-03-21T12:13:14.521Z,80.40
2019-03-21T12:15:42.030Z,79.60
2019-03-21T12:18:09.459Z,79.00
2019-03-21T12:20:36.828Z,77.80
2019-03-21T12:23:04.188Z,78.40
2019-03-21T12:25:31.982Z,78.50
2019-03-21T12:30:36.003Z,78.60
2019-03-21T12:33:03.678Z,78.90
2019-03-21T12:35:30.874Z,79.10
2019-03-21T12:37:58.159Z,78.10
2019-03-21T12:40:26.589Z,77.90
2019-03-21T12:42:53.853Z,78.60
2019-03-21T12:45:21.113Z,78.70
2019-03-21T12:47:50.884Z,79.30
2019-03-21T12:50:18.280Z,79.60
2019-03-21T12:52:45.753Z,79.60
2019-03-21T12:55:13.996Z,80.10
2019-03-21T12:57:41.253Z,79.10
2019-03-21T13:00:09.234Z,79.40
2019-03-21T13:02:36.459Z,79.00
2019-03-21T13:05:05.961Z,79.60
2019-03-21T13:07:33.153Z,79.80
2019-03-21T13:10:00.385Z,79.90
2019-03-21T13:12:27.617Z,79.30
2019-03-21T13:14:54.834Z,80.00
2019-03-21T13:17:22.065Z,80.90
2019-03-21T13:19:49.228Z,80.20
2019-03-21T13:22:16.409Z,81.60
2019-03-21T13:24:43.565Z,81.30
2019-03-21T13:27:10.827Z,81.10
2019-03-21T13:29:38.064Z,82.30
2019-03-21T13:32:05.204Z,82.40
2019-03-21T13:34:32.848Z,81.90
2019-03-21T13:37:00.086Z,80.90
2019-03-21T13:39:27.363Z,80.50
2019-03-21T13:41:54.529Z,79.60
2019-03-21T13:44:21.772Z,80.60
2019-03-21T13:46:48.915Z,81.20
2019-03-21T13:49:16.062Z,80.70
2019-03-21T13:51:43.301Z,80.70
2019-03-21T13:54:11.634Z,81.30
2019-03-21T13:56:38.796Z,82.20
2019-03-21T13:59:06.100Z,80.90
2019-03-21T14:01:33.281Z,81.30
2019-03-21T14:04:01.928Z,81.60
2019-03-21T14:06:31.359Z,80.80
2019-03-21T14:08:58.851Z,81.40
2019-03-21T14:11:26.005Z,80.70
2019-03-21T14:13:53.179Z,80.60
2019-03-21T14:16:20.328Z,80.00
2019-03-21T14:18:47.790Z,79.40
2019-03-21T14:21:14.993Z,78.60
2019-03-21T14:23:43.522Z,78.40
2019-03-21T14:26:10.977Z,78.00
2019-03-21T14:28:39.237Z,77.30
2019-03-21T14:31:06.364Z,78.10
2019-03-21T14:33:33.654Z,78.20
2019-03-21T14:36:00.790Z,77.60
2019-03-21T14:38:28.062Z,76.90
2019-03-21T14:40:55.302Z,76.50
2019-03-21T14:43:22.457Z,76.70
2019-03-21T14:45:49.588Z,77.20
2019-03-21T14:48:16.719Z,76.30
2019-03-21T14:50:43.905Z,75.90
2019-03-21T14:53:11.116Z,76.20
2019-03-21T14:55:47.459Z,75.20
2019-03-21T14:58:08.924Z,75.10
2019-03-21T15:00:36.093Z,75.10
2019-03-21T15:03:03.237Z,75.00
2019-03-21T15:05:31.409Z,74.00
2019-03-21T15:07:58.564Z,74.80
2019-03-21T15:10:26.066Z,74.50
2019-03-21T15:12:53.271Z,74.50
2019-03-21T15:15:21.204Z,74.30
2019-03-21T15:17:48.371Z,76.40
2019-03-21T15:20:15.989Z,76.30
2019-03-21T15:23:04.880Z,77.40
2019-03-21T15:25:32.680Z,77.90
2019-03-21T15:28:00.225Z,78.40
2019-03-21T15:30:27.593Z,78.10
2019-03-21T15:32:54.943Z,78.50
2019-03-21T15:35:22.201Z,79.10
2019-03-21T15:37:49.325Z,80.30
2019-03-21T15:40:16.852Z,80.40
2019-03-21T15:42:44.285Z,80.50
2019-03-21T15:45:22.115Z,81.20
2019-03-21T15:47:44.092Z,81.30
2019-03-21T15:50:37.253Z,80.60
2019-03-21T15:53:04.751Z,80.70
2019-03-21T15:55:32.025Z,81.20
2019-03-21T15:57:59.271Z,80.80
2019-03-21T16:00:30.878Z,80.70
2019-03-21T16:02:58.162Z,80.90
2019-03-21T16:05:25.645Z,80.80
2019-03-21T16:07:52.788Z,81.30
2019-03-21T16:10:20.288Z,81.80
2019-03-21T16:12:47.404Z,82.10
2019-03-21T16:15:14.846Z,82.20
2019-03-21T16:17:41.976Z,81.90
2019-03-21T16:20:09.393Z,82.80
2019-03-21T16:22:36.723Z,83.60
2019-03-21T16:25:05.230Z,84.20
2019-03-21T16:27:32.376Z,85.10
2019-03-21T16:29:59.631Z,86.10
2019-03-21T16:32:26.899Z,87.00
2019-03-21T16:34:54.051Z,88.30
2019-03-21T16:37:22.983Z,89.40
2019-03-21T16:39:51.313Z,90.00
2019-03-21T16:42:19.585Z,90.80
2019-03-21T16:44:47.778Z,91.20
2019-03-21T16:47:14.906Z,91.40
2019-03-21T16:49:42.040Z,92.20
2019-03-21T16:52:09.196Z,93.00
2019-03-21T16:54:36.324Z,93.60
2019-03-21T16:57:03.455Z,94.20
2019-03-21T16:59:30.940Z,94.80
2019-03-21T17:01:58.069Z,95.40
2019-03-21T17:04:25.229Z,95.80
2019-03-21T17:06:52.380Z,96.70
2019-03-21T17:09:20.543Z,97.10
2019-03-21T17:11:47.697Z,97.20
2019-03-21T17:14:15.179Z,97.70
2019-03-21T17:16:51.924Z,98.30
2019-03-21T17:19:19.209Z,98.80
2019-03-21T17:21:46.404Z,99.40
2019-03-21T17:24:13.638Z,99.90
2019-03-21T17:26:41.076Z,99.90
2019-03-21T17:29:08.278Z,99.90
2019-03-21T17:31:35.491Z,99.90
2019-03-21T17:34:04.241Z,99.90
2019-03-21T17:36:31.885Z,99.90
2019-03-21T17:38:59.253Z,99.90
2019-03-21T17:41:26.808Z,99.90
2019-03-21T17:43:54.001Z,99.90
2019-03-21T17:46:21.169Z,99.90
2019-03-21T17:48:48.445Z,99.90
2019-03-21T17:51:15.643Z,99.90
2019-03-21T17:53:42.892Z,99.90
2019-03-21T17:56:10.162Z,99.90
2019-03-21T17:58:37.298Z,99.90
2019-03-21T18:01:04.877Z,99.90
2019-03-21T18:03:33.173Z,99.90
2019-03-21T18:06:00.389Z,99.90
2019-03-21T18:08:27.831Z,99.90
2019-03-21T18:10:57.240Z,99.90
2019-03-21T18:13:24.188Z,99.90
2019-03-21T18:15:51.336Z,99.90
2019-03-21T18:18:18.484Z,99.90
2019-03-21T18:20:45.800Z,99.90
2019-03-21T18:23:12.912Z,99.90
2019-03-21T18:25:40.082Z,99.90
2019-03-21T18:28:08.744Z,99.90
2019-03-21T18:30:36.296Z,99.90
2019-03-21T18:33:03.744Z,99.90
2019-03-21T18:35:31.151Z,99.90
2019-03-21T18:37:58.364Z,99.90
2019-03-21T18:40:25.526Z,99.90
2019-03-21T18:42:52.759Z,99.90
2019-03-21T18:45:19.905Z,99.90
2019-03-21T18:47:47.108Z,99.90
2019-03-21T18:50:14.543Z,99.90
2019-03-21T18:52:42.309Z,99.90
2019-03-21T18:55:09.797Z,99.90
2019-03-21T18:57:37.256Z,99.90
2019-03-21T19:00:05.680Z,99.90
2019-03-21T19:02:32.800Z,99.90
2019-03-21T19:04:59.980Z,99.90
2019-03-21T19:07:27.503Z,99.90
2019-03-21T19:09:54.719Z,99.90
2019-03-21T19:12:22.084Z,99.90
2019-03-21T19:14:49.345Z,99.90
2019-03-21T19:17:16.483Z,99.90
2019-03-21T19:19:43.644Z,99.90
2019-03-21T19:22:10.852Z,99.90
2019-03-21T19:24:38.041Z,99.90
2019-03-21T19:27:05.523Z,99.90
2019-03-21T19:29:32.715Z,99.90
2019-03-21T19:31:59.949Z,99.90
2019-03-21T19:34:27.214Z,99.90
2019-03-21T19:36:54.521Z,99.90
2019-03-21T19:39:21.644Z,99.90
2019-03-21T19:41:48.921Z,99.90
2019-03-21T19:44:16.168Z,99.90
2019-03-21T19:46:44.316Z,99.90
2019-03-21T19:49:11.597Z,99.90
2019-03-21T19:51:38.811Z,99.90
2019-03-21T19:54:06.016Z,99.90
2019-03-21T19:56:33.140Z,99.90
2019-03-21T19:59:01.271Z,99.90
2019-03-21T20:01:29.711Z,99.90
2019-03-21T20:03:56.960Z,99.90
2019-03-21T20:06:24.167Z,99.90
2019-03-21T20:08:51.358Z,99.90
2019-03-21T20:11:20.132Z,99.90
2019-03-21T20:13:47.479Z,99.90
2019-03-21T20:16:15.196Z,99.90
2019-03-21T20:18:42.429Z,99.90
2019-03-21T20:21:09.801Z,99.90
2019-03-21T20:23:37.176Z,99.90
2019-03-21T20:26:04.857Z,99.90
2019-03-21T20:28:32.041Z,99.90
2019-03-21T20:30:59.263Z,99.90
2019-03-21T20:33:26.432Z,99.90
2019-03-21T20:36:02.097Z,99.90
2019-03-21T20:38:32.323Z,99.90
2019-03-21T20:41:01.247Z,99.90
2019-03-21T20:43:29.656Z,99.90
2019-03-21T20:45:56.800Z,99.90
2019-03-21T20:48:29.748Z,99.90
2019-03-21T20:50:57.544Z,99.90
2019-03-21T20:53:24.707Z,99.90
2019-03-21T20:55:53.897Z,99.90
2019-03-21T20:58:21.234Z,99.90
2019-03-21T21:00:48.454Z,99.90
2019-03-21T21:03:16.161Z,99.90
2019-03-21T21:05:43.298Z,99.90
2019-03-21T21:08:10.422Z,99.90
2019-03-21T21:10:38.760Z,99.90
2019-03-21T21:13:06.173Z,99.90
2019-03-21T21:15:33.372Z,99.90
2019-03-21T21:18:00.521Z,99.90
2019-03-21T21:20:27.679Z,99.90
2019-03-21T21:22:54.814Z,99.90
2019-03-21T21:25:22.029Z,99.90
2019-03-21T21:27:50.326Z,99.90
2019-03-21T21:30:18.300Z,99.90
2019-03-21T21:32:45.535Z,99.90
2019-03-21T21:35:13.113Z,99.90
2019-03-21T21:37:40.271Z,99.90
2019-03-21T21:40:08.763Z,99.90
2019-03-21T21:42:36.356Z,99.90
2019-03-21T21:45:05.883Z,99.90
2019-03-21T21:47:33.091Z,99.90
2019-03-21T21:50:00.360Z,99.90
2019-03-21T21:52:27.701Z,99.90
2019-03-21T21:54:54.961Z,99.90
2019-03-21T21:57:22.161Z,99.90
2019-03-21T21:59:49.701Z,99.90
2019-03-21T22:02:16.876Z,99.90
2019-03-21T22:04:45.169Z,99.90
2019-03-21T22:07:12.365Z,99.90
2019-03-21T22:09:39.595Z,99.90
2019-03-21T22:12:06.859Z,99.90
2019-03-21T22:14:33.980Z,99.90
2019-03-21T22:17:01.144Z,99.90
2019-03-21T22:19:28.279Z,99.90
2019-03-21T22:21:55.406Z,99.90
2019-03-21T22:24:22.584Z,99.90
2019-03-21T22:26:49.819Z,99.90
2019-03-21T22:29:17.048Z,99.90
2019-03-21T22:31:44.360Z,99.90
2019-03-21T22:34:11.563Z,99.90
2019-03-21T22:36:48.878Z,99.90
2019-03-21T22:39:07.905Z,99.90
2019-03-21T22:41:35.163Z,99.90
2019-03-21T22:44:02.354Z,99.90
2019-03-21T22:46:29.964Z,99.90
2019-03-21T22:48:57.189Z,99.90
2019-03-21T22:51:24.617Z,99.90
2019-03-21T22:53:52.342Z,99.90
2019-03-21T22:56:19.808Z,99.90
2019-03-21T22:58:47.040Z,99.90
2019-03-21T23:01:14.398Z,99.90
2019-03-21T23:03:42.906Z,99.90
2019-03-21T23:06:10.485Z,99.90
2019-03-21T23:08:37.839Z,99.90
2019-03-21T23:11:05.110Z,99.90
2019-03-21T23:13:32.231Z,99.90
2019-03-21T23:15:59.447Z,99.90
2019-03-21T23:18:26.628Z,99.90
2019-03-21T23:20:53.864Z,99.90
2019-03-21T23:23:23.055Z,99.90
2019-03-21T23:25:50.347Z,99.90
2019-03-21T23:28:17.550Z,99.90
2019-03-21T23:30:44.820Z,99.90
2019-03-21T23:33:13.118Z,99.90
2019-03-21T23:35:40.369Z,99.90
2019-03-21T23:38:07.569Z,99.90
2019-03-21T23:40:34.729Z,99.90
2019-03-21T23:43:01.955Z,99.90
2019-03-21T23:45:29.399Z,99.90
2019-03-21T23:47:56.565Z,99.90
2019-03-21T23:50:26.932Z,99.90
2019-03-21T23:52:54.112Z,99.90
2019-03-21T23:55:21.558Z,99.90
2019-03-21T23:57:48.771Z,99.90
